createdAt,value
2018-03-21T00:00:14.775Z,15.70
2018-03-21T00:02:45.466Z,18.00
2018-03-21T00:05:14.297Z,18.13
2018-03-21T00:07:43.670Z,18.67
2018-03-21T00:10:11.690Z,20.93
2018-03-21T00:12:40.185Z,18.07
2018-03-21T00:15:08.137Z,16.77
2018-03-21T00:17:37.011Z,19.20
2018-03-21T00:20:05.394Z,17.13
2018-03-21T00:22:33.993Z,17.83
2018-03-21T00:25:03.518Z,18.00
2018-03-21T00:27:33.044Z,14.57
2018-03-21T00:30:01.850Z,17.70
2018-03-21T00:32:29.609Z,21.20
2018-03-21T00:34:57.201Z,17.60
2018-03-21T00:37:25.938Z,17.47
2018-03-21T00:39:53.905Z,14.90
2018-03-21T00:42:22.573Z,16.13
2018-03-21T00:44:51.086Z,13.20
2018-03-21T00:47:18.648Z,14.03
2018-03-21T00:49:48.260Z,14.40
2018-03-21T00:52:17.701Z,14.23
2018-03-21T00:54:46.342Z,14.63
2018-03-21T00:57:14.111Z,14.73
2018-03-21T00:59:43.282Z,17.03
2018-03-21T01:02:11.326Z,14.83
2018-03-21T01:04:42.244Z,12.07
2018-03-21T01:07:10.484Z,13.87
2018-03-21T01:09:39.053Z,15.47
2018-03-21T01:12:08.917Z,14.60
2018-03-21T01:14:37.178Z,12.00
2018-03-21T01:17:05.705Z,11.00
2018-03-21T01:19:33.654Z,18.10
2018-03-21T01:22:03.934Z,13.70
2018-03-21T01:24:31.893Z,11.73
2018-03-21T01:27:02.159Z,13.23
2018-03-21T01:29:30.104Z,11.07
2018-03-21T01:31:57.638Z,10.13
2018-03-21T01:34:26.698Z,11.10
2018-03-21T01:36:55.413Z,11.93
2018-03-21T01:39:23.359Z,11.80
2018-03-21T01:41:50.879Z,9.63
2018-03-21T01:44:19.201Z,10.70
2018-03-21T01:46:47.125Z,12.57
2018-03-21T01:49:16.126Z,11.50
2018-03-21T01:51:44.427Z,12.70
2018-03-21T01:54:12.542Z,9.97
2018-03-21T01:56:43.142Z,12.00
2018-03-21T01:59:11.422Z,9.37
2018-03-21T02:01:38.953Z,11.67
2018-03-21T02:04:07.998Z,10.10
2018-03-21T02:06:36.493Z,9.30
2018-03-21T02:09:04.883Z,10.50
2018-03-21T02:11:34.017Z,9.47
2018-03-21T02:14:03.079Z,9.97
2018-03-21T02:16:30.648Z,9.73
2018-03-21T02:18:58.173Z,9.77
2018-03-21T02:21:26.975Z,11.77
2018-03-21T02:23:57.875Z,11.40
2018-03-21T02:26:26.185Z,7.80
2018-03-21T02:28:55.213Z,9.30
2018-03-21T02:31:22.764Z,8.60
2018-03-21T02:33:50.677Z,8.40
2018-03-21T02:36:19.478Z,9.43
2018-03-21T02:38:47.651Z,7.17
2018-03-21T02:41:16.134Z,10.03
2018-03-21T02:43:44.766Z,9.17
2018-03-21T02:46:12.359Z,7.50
2018-03-21T02:48:40.286Z,7.57
2018-03-21T02:51:09.134Z,7.60
2018-03-21T02:53:38.402Z,7.40
2018-03-21T02:56:06.098Z,7.57
2018-03-21T02:58:34.986Z,9.57
2018-03-21T03:01:03.430Z,8.43
2018-03-21T03:03:31.749Z,10.23
2018-03-21T03:05:59.346Z,11.20
2018-03-21T03:08:27.696Z,9.23
2018-03-21T03:10:57.865Z,8.53
2018-03-21T03:13:26.699Z,7.80
2018-03-21T03:15:54.277Z,10.10
2018-03-21T03:18:22.091Z,10.77
2018-03-21T03:20:52.664Z,8.13
2018-03-21T03:23:22.524Z,10.57
2018-03-21T03:25:53.030Z,7.50
2018-03-21T03:28:22.209Z,8.17
2018-03-21T03:30:51.405Z,9.40
2018-03-21T03:33:20.598Z,8.40
2018-03-21T03:35:49.898Z,9.30
2018-03-21T03:38:19.110Z,8.97
2018-03-21T03:40:48.304Z,7.87
2018-03-21T03:43:17.521Z,8.80
2018-03-21T03:45:46.877Z,7.73
2018-03-21T03:48:17.177Z,12.53
2018-03-21T03:50:47.160Z,7.17
2018-03-21T03:53:17.782Z,9.03
2018-03-21T03:55:48.970Z,11.97
2018-03-21T03:58:18.676Z,10.97
2018-03-21T04:00:48.689Z,11.40
2018-03-21T04:03:19.154Z,7.33
2018-03-21T04:05:48.982Z,8.60
2018-03-21T04:08:19.005Z,8.63
2018-03-21T04:10:48.272Z,7.47
2018-03-21T04:13:18.271Z,9.87
2018-03-21T04:18:22.215Z,7.90
2018-03-21T04:20:51.784Z,12.40
2018-03-21T04:23:22.021Z,10.07
2018-03-21T04:25:53.075Z,10.30
2018-03-21T04:28:22.239Z,9.50
2018-03-21T04:30:51.494Z,8.77
2018-03-21T04:33:21.534Z,8.20
2018-03-21T04:35:52.055Z,9.97
2018-03-21T04:38:22.097Z,8.07
2018-03-21T04:40:51.296Z,9.33
2018-03-21T04:43:20.506Z,9.80
2018-03-21T04:45:49.710Z,8.60
2018-03-21T04:48:18.932Z,15.83
2018-03-21T04:50:48.122Z,7.70
2018-03-21T04:53:20.998Z,9.43
2018-03-21T04:55:52.539Z,6.57
2018-03-21T04:58:22.640Z,7.63
2018-03-21T05:00:51.848Z,7.93
2018-03-21T05:03:21.081Z,8.03
2018-03-21T05:05:50.362Z,9.20
2018-03-21T05:08:20.551Z,7.90
2018-03-21T05:10:49.736Z,8.50
2018-03-21T05:16:18.880Z,7.13
2018-03-21T05:18:48.119Z,12.07
2018-03-21T05:21:17.412Z,7.97
2018-03-21T05:23:46.763Z,8.27
2018-03-21T05:26:16.717Z,7.73
2018-03-21T05:28:46.258Z,9.40
2018-03-21T05:31:15.518Z,9.37
2018-03-21T05:33:45.290Z,7.43
2018-03-21T05:36:14.940Z,6.80
2018-03-21T05:38:44.184Z,9.77
2018-03-21T05:41:13.475Z,8.60
2018-03-21T05:43:42.725Z,10.60
2018-03-21T05:46:12.773Z,13.70
2018-03-21T05:48:42.186Z,9.70
2018-03-21T05:51:11.433Z,8.37
2018-03-21T05:53:41.193Z,6.33
2018-03-21T05:56:10.479Z,9.00
2018-03-21T05:58:39.770Z,8.97
2018-03-21T06:01:09.313Z,7.90
2018-03-21T06:03:38.681Z,7.67
2018-03-21T06:06:07.901Z,10.33
2018-03-21T06:08:37.187Z,8.53
2018-03-21T06:11:06.454Z,8.50
2018-03-21T06:13:36.117Z,11.60
2018-03-21T06:16:05.951Z,8.87
2018-03-21T06:18:35.293Z,7.50
2018-03-21T06:21:04.555Z,10.20
2018-03-21T06:23:33.837Z,9.50
2018-03-21T06:26:03.528Z,9.70
2018-03-21T06:28:32.922Z,11.53
2018-03-21T06:31:06.174Z,8.80
2018-03-21T06:33:35.672Z,10.83
2018-03-21T06:36:04.934Z,8.30
2018-03-21T06:38:34.195Z,10.13
2018-03-21T06:41:04.495Z,9.70
2018-03-21T06:43:34.230Z,8.47
2018-03-21T06:46:03.490Z,10.30
2018-03-21T06:48:32.778Z,16.37
2018-03-21T06:51:03.879Z,11.90
2018-03-21T06:53:33.124Z,10.50
2018-03-21T06:56:02.373Z,12.37
2018-03-21T06:58:31.613Z,10.83
2018-03-21T07:01:00.957Z,15.40
2018-03-21T07:03:31.198Z,14.83
2018-03-21T07:06:00.400Z,16.23
2018-03-21T07:08:29.184Z,12.43
2018-03-21T07:10:57.363Z,12.43
2018-03-21T07:13:25.789Z,15.67
2018-03-21T07:16:06.022Z,11.00
2018-03-21T07:18:33.993Z,12.77
2018-03-21T07:21:02.385Z,10.87
2018-03-21T07:23:30.253Z,11.33
2018-03-21T07:25:58.801Z,9.93
2018-03-21T07:28:27.619Z,9.90
2018-03-21T07:31:05.383Z,9.10
2018-03-21T07:33:34.450Z,12.57
2018-03-21T07:36:02.458Z,9.03
2018-03-21T07:38:30.840Z,13.80
2018-03-21T07:40:58.482Z,9.27
2018-03-21T07:43:26.099Z,13.90
2018-03-21T07:45:54.712Z,9.47
2018-03-21T07:48:23.080Z,10.93
2018-03-21T07:50:54.645Z,11.30
2018-03-21T07:53:23.845Z,8.90
2018-03-21T07:55:51.427Z,8.80
2018-03-21T07:58:19.797Z,9.40
2018-03-21T08:00:48.353Z,7.83
2018-03-21T08:03:16.357Z,10.07
2018-03-21T08:05:44.806Z,10.43
2018-03-21T08:08:13.508Z,7.80
2018-03-21T08:10:41.865Z,7.03
2018-03-21T08:13:10.299Z,5.27
2018-03-21T08:15:38.268Z,10.50
2018-03-21T08:18:06.685Z,5.57
2018-03-21T08:20:35.274Z,8.30
2018-03-21T08:23:03.899Z,6.40
2018-03-21T08:25:31.893Z,5.13
2018-03-21T08:27:59.863Z,6.87
2018-03-21T08:30:27.484Z,4.20
2018-03-21T08:32:55.921Z,5.43
2018-03-21T08:35:25.322Z,4.97
2018-03-21T08:37:54.256Z,7.10
2018-03-21T08:40:21.864Z,5.90
2018-03-21T08:42:50.189Z,5.63
2018-03-21T08:45:17.816Z,6.70
2018-03-21T08:47:45.386Z,4.67
2018-03-21T08:50:12.993Z,4.43
2018-03-21T08:52:41.138Z,4.63
2018-03-21T08:55:09.191Z,4.83
2018-03-21T08:57:37.736Z,6.40
2018-03-21T09:00:06.143Z,8.43
2018-03-21T09:02:34.093Z,6.10
2018-03-21T09:05:02.009Z,4.40
2018-03-21T09:07:29.942Z,6.07
2018-03-21T09:09:58.348Z,3.30
2018-03-21T09:12:26.336Z,3.43
2018-03-21T09:14:54.694Z,2.30
2018-03-21T09:17:23.145Z,3.00
2018-03-21T09:19:51.135Z,5.27
2018-03-21T09:22:19.480Z,4.50
2018-03-21T09:24:47.067Z,3.53
2018-03-21T09:27:15.127Z,3.60
2018-03-21T09:29:43.440Z,4.57
2018-03-21T09:32:12.097Z,3.40
2018-03-21T09:34:40.565Z,3.00
2018-03-21T09:37:08.565Z,3.40
2018-03-21T09:39:36.559Z,5.53
2018-03-21T09:42:05.556Z,3.67
2018-03-21T09:44:33.857Z,3.13
2018-03-21T09:47:02.265Z,3.27
2018-03-21T09:49:30.263Z,2.40
2018-03-21T09:51:57.822Z,3.43
2018-03-21T09:54:25.406Z,3.63
2018-03-21T09:56:53.055Z,3.70
2018-03-21T09:59:20.691Z,3.23
2018-03-21T10:01:49.167Z,3.30
2018-03-21T10:04:18.014Z,2.83
2018-03-21T10:06:46.232Z,3.50
2018-03-21T10:09:14.206Z,3.10
2018-03-21T10:11:42.576Z,4.20
2018-03-21T10:14:11.019Z,3.93
2018-03-21T10:16:39.836Z,4.73
2018-03-21T10:19:08.567Z,3.43
2018-03-21T10:21:36.143Z,3.30
2018-03-21T10:24:04.476Z,4.10
2018-03-21T10:26:32.596Z,2.80
2018-03-21T10:29:00.925Z,4.33
2018-03-21T10:31:28.905Z,5.33
2018-03-21T10:33:57.751Z,3.03
2018-03-21T10:36:25.522Z,3.00
2018-03-21T10:38:54.055Z,2.80
2018-03-21T10:41:21.665Z,3.40
2018-03-21T10:43:49.666Z,3.97
2018-03-21T10:46:17.258Z,3.43
2018-03-21T10:48:44.819Z,5.23
2018-03-21T10:51:13.965Z,3.00
2018-03-21T10:53:41.875Z,3.10
2018-03-21T10:56:09.462Z,3.77
2018-03-21T10:58:37.803Z,3.33
2018-03-21T11:01:11.154Z,2.97
2018-03-21T11:03:38.945Z,5.20
2018-03-21T11:06:07.045Z,3.40
2018-03-21T11:08:34.737Z,2.77
2018-03-21T11:11:02.380Z,2.90
2018-03-21T11:13:30.009Z,3.30
2018-03-21T11:16:00.029Z,3.43
2018-03-21T11:18:27.753Z,4.07
2018-03-21T11:20:55.780Z,6.60
2018-03-21T11:23:23.369Z,3.10
2018-03-21T11:25:51.769Z,2.80
2018-03-21T11:28:19.374Z,7.50
2018-03-21T11:30:47.013Z,3.00
2018-03-21T11:33:14.718Z,2.60
2018-03-21T11:35:42.283Z,3.20
2018-03-21T11:38:09.903Z,2.50
2018-03-21T11:40:37.456Z,3.20
2018-03-21T11:43:05.126Z,3.97
2018-03-21T11:45:32.745Z,5.80
2018-03-21T11:48:00.732Z,4.97
2018-03-21T11:50:28.600Z,2.70
2018-03-21T11:52:56.206Z,2.67
2018-03-21T11:55:23.794Z,3.97
2018-03-21T11:57:58.501Z,2.60
2018-03-21T12:00:26.065Z,2.10
2018-03-21T12:02:53.655Z,2.43
2018-03-21T12:05:21.225Z,3.07
2018-03-21T12:07:48.848Z,2.20
2018-03-21T12:10:17.200Z,2.70
2018-03-21T12:12:44.815Z,3.17
2018-03-21T12:15:12.372Z,3.37
2018-03-21T12:17:39.989Z,4.20
2018-03-21T12:20:08.187Z,2.70
2018-03-21T12:22:36.565Z,2.33
2018-03-21T12:25:04.962Z,2.63
2018-03-21T12:27:32.588Z,4.10
2018-03-21T12:30:00.178Z,5.00
2018-03-21T12:32:28.914Z,3.30
2018-03-21T12:34:57.076Z,3.17
2018-03-21T12:37:25.494Z,3.30
2018-03-21T12:39:53.058Z,2.97
2018-03-21T12:42:20.658Z,3.93
2018-03-21T12:44:48.293Z,2.80
2018-03-21T12:47:17.375Z,4.00
2018-03-21T12:49:45.037Z,2.27
2018-03-21T12:52:12.688Z,2.90
2018-03-21T12:54:40.307Z,4.90
2018-03-21T12:57:08.346Z,2.50
2018-03-21T12:59:36.385Z,8.63
2018-03-21T13:02:04.004Z,2.43
2018-03-21T13:04:31.616Z,2.73
2018-03-21T13:06:59.186Z,2.90
2018-03-21T13:09:27.005Z,2.93
2018-03-21T13:11:54.677Z,2.50
2018-03-21T13:14:22.289Z,2.30
2018-03-21T13:16:50.062Z,2.70
2018-03-21T13:19:17.644Z,2.70
2018-03-21T13:21:45.722Z,3.23
2018-03-21T13:24:13.357Z,3.27
2018-03-21T13:26:41.079Z,3.60
2018-03-21T13:29:08.816Z,3.67
2018-03-21T13:31:37.202Z,3.57
2018-03-21T13:34:05.043Z,7.67
2018-03-21T13:36:32.806Z,3.20
2018-03-21T13:39:00.408Z,2.23
2018-03-21T13:41:28.838Z,2.73
2018-03-21T13:43:56.447Z,3.27
2018-03-21T13:46:24.743Z,2.93
2018-03-21T13:48:53.035Z,11.10
2018-03-21T13:51:21.477Z,2.07
2018-03-21T13:53:49.485Z,2.60
2018-03-21T13:56:17.048Z,2.43
2018-03-21T13:58:44.694Z,1.93
2018-03-21T14:01:12.279Z,5.83
2018-03-21T14:03:39.933Z,4.93
2018-03-21T14:06:07.630Z,2.50
2018-03-21T14:08:35.254Z,2.30
2018-03-21T14:11:02.875Z,3.17
2018-03-21T14:13:30.806Z,2.30
2018-03-21T14:15:58.428Z,2.60
2018-03-21T14:18:26.397Z,2.93
2018-03-21T14:20:54.011Z,5.43
2018-03-21T14:23:21.653Z,3.73
2018-03-21T14:25:49.254Z,2.47
2018-03-21T14:28:17.614Z,4.20
2018-03-21T14:30:45.372Z,2.67
2018-03-21T14:33:12.944Z,3.20
2018-03-21T14:35:40.879Z,2.50
2018-03-21T14:38:08.505Z,4.33
2018-03-21T14:40:36.873Z,2.40
2018-03-21T14:43:04.497Z,2.33
2018-03-21T14:45:32.126Z,2.33
2018-03-21T14:47:59.770Z,2.60
2018-03-21T14:50:28.120Z,2.23
2018-03-21T14:52:55.703Z,3.53
2018-03-21T14:55:23.499Z,6.73
2018-03-21T14:57:51.171Z,3.30
2018-03-21T15:00:18.824Z,2.63
2018-03-21T15:02:47.266Z,4.93
2018-03-21T15:05:14.897Z,2.47
2018-03-21T15:07:42.454Z,3.27
2018-03-21T15:10:10.330Z,2.37
2018-03-21T15:12:38.455Z,2.60
2018-03-21T15:15:06.172Z,2.30
2018-03-21T15:17:34.768Z,3.30
2018-03-21T15:20:09.189Z,2.50
2018-03-21T15:22:37.591Z,2.23
2018-03-21T15:25:05.317Z,2.37
2018-03-21T15:27:33.122Z,2.60
2018-03-21T15:30:00.914Z,2.67
2018-03-21T15:32:28.557Z,4.77
2018-03-21T15:34:56.954Z,2.30
2018-03-21T15:37:24.844Z,3.70
2018-03-21T15:39:52.442Z,2.70
2018-03-21T15:42:20.228Z,2.40
2018-03-21T15:44:47.815Z,2.47
2018-03-21T15:47:15.951Z,2.60
2018-03-21T15:49:43.572Z,2.90
2018-03-21T15:52:12.031Z,2.10
2018-03-21T15:54:39.628Z,4.10
2018-03-21T15:57:08.557Z,2.80
2018-03-21T15:59:36.148Z,2.47
2018-03-21T16:02:05.380Z,2.20
2018-03-21T16:04:33.416Z,2.27
2018-03-21T16:07:01.248Z,2.17
2018-03-21T16:09:28.877Z,2.53
2018-03-21T16:11:56.461Z,2.50
2018-03-21T16:14:24.502Z,4.70
2018-03-21T16:16:52.190Z,3.23
2018-03-21T16:19:19.993Z,2.60
2018-03-21T16:21:47.579Z,2.30
2018-03-21T16:24:15.168Z,2.20
2018-03-21T16:26:42.819Z,3.63
2018-03-21T16:29:10.416Z,9.37
2018-03-21T16:31:38.185Z,3.30
2018-03-21T16:34:06.793Z,3.20
2018-03-21T16:36:34.496Z,2.00
2018-03-21T16:39:02.101Z,2.27
2018-03-21T16:41:29.740Z,2.40
2018-03-21T16:43:57.440Z,3.00
2018-03-21T16:46:25.804Z,5.57
2018-03-21T16:48:53.606Z,6.00
2018-03-21T16:51:21.215Z,1.93
2018-03-21T16:53:48.845Z,5.07
2018-03-21T16:56:16.539Z,4.43
2018-03-21T16:58:44.127Z,2.90
2018-03-21T17:01:12.483Z,3.50
2018-03-21T17:03:40.137Z,2.57
2018-03-21T17:06:08.291Z,4.73
2018-03-21T17:08:36.307Z,2.80
2018-03-21T17:11:04.965Z,2.87
2018-03-21T17:13:33.287Z,2.40
2018-03-21T17:16:01.426Z,3.13
2018-03-21T17:18:29.391Z,3.10
2018-03-21T17:20:57.859Z,2.33
2018-03-21T17:23:26.212Z,3.30
2018-03-21T17:25:54.679Z,2.63
2018-03-21T17:28:23.028Z,4.70
2018-03-21T17:30:51.402Z,4.83
2018-03-21T17:33:19.820Z,2.20
2018-03-21T17:35:48.539Z,4.83
2018-03-21T17:38:16.779Z,3.47
2018-03-21T17:40:45.148Z,2.20
2018-03-21T17:43:13.505Z,2.60
2018-03-21T17:45:41.564Z,8.57
2018-03-21T17:48:09.613Z,6.07
2018-03-21T17:50:38.094Z,2.27
2018-03-21T17:53:06.434Z,4.33
2018-03-21T17:55:34.579Z,3.03
2018-03-21T17:58:02.208Z,3.00
2018-03-21T18:00:29.913Z,5.63
2018-03-21T18:02:58.407Z,6.60
2018-03-21T18:05:26.840Z,3.93
2018-03-21T18:07:54.810Z,3.00
2018-03-21T18:10:22.414Z,6.70
2018-03-21T18:12:50.647Z,4.87
2018-03-21T18:15:18.656Z,4.27
2018-03-21T18:17:47.074Z,3.93
2018-03-21T18:20:15.397Z,4.50
2018-03-21T18:22:43.147Z,6.43
2018-03-21T18:25:10.837Z,4.00
2018-03-21T18:27:38.881Z,4.93
2018-03-21T18:30:07.683Z,3.90
2018-03-21T18:32:36.124Z,3.33
2018-03-21T18:35:04.093Z,5.30
2018-03-21T18:37:32.562Z,3.20
2018-03-21T18:40:00.541Z,4.93
2018-03-21T18:42:29.277Z,8.70
2018-03-21T18:44:57.334Z,15.30
2018-03-21T18:47:25.804Z,12.20
2018-03-21T18:49:54.843Z,9.17
2018-03-21T18:52:22.484Z,13.13
2018-03-21T18:54:50.980Z,13.47
2018-03-21T18:57:18.644Z,14.90
2018-03-21T18:59:46.349Z,11.17
2018-03-21T19:02:15.245Z,8.53
2018-03-21T19:04:42.822Z,7.13
2018-03-21T19:07:11.478Z,8.07
2018-03-21T19:09:39.271Z,6.70
2018-03-21T19:12:07.631Z,6.00
2018-03-21T19:14:35.245Z,5.83
2018-03-21T19:17:03.813Z,5.60
2018-03-21T19:19:31.459Z,6.67
2018-03-21T19:21:59.460Z,10.97
2018-03-21T19:24:28.083Z,8.10
2018-03-21T19:26:56.435Z,7.50
2018-03-21T19:29:24.412Z,6.93
2018-03-21T19:31:52.088Z,9.73
2018-03-21T19:34:19.652Z,8.17
2018-03-21T19:36:48.717Z,7.43
2018-03-21T19:39:17.138Z,5.87
2018-03-21T19:41:44.901Z,7.90
2018-03-21T19:44:12.669Z,5.00
2018-03-21T19:46:41.015Z,7.10
2018-03-21T19:49:09.760Z,4.00
2018-03-21T19:51:38.123Z,5.67
2018-03-21T19:54:06.783Z,4.33
2018-03-21T19:56:37.671Z,3.20
2018-03-21T19:59:06.025Z,3.50
2018-03-21T20:01:33.990Z,5.50
2018-03-21T20:04:02.013Z,3.57
2018-03-21T20:06:30.463Z,4.97
2018-03-21T20:08:58.778Z,4.10
2018-03-21T20:11:26.352Z,3.70
2018-03-21T20:13:54.720Z,3.30
2018-03-21T20:16:24.021Z,3.80
2018-03-21T20:18:52.390Z,4.53
2018-03-21T20:21:20.738Z,6.40
2018-03-21T20:23:48.733Z,4.67
2018-03-21T20:26:16.934Z,4.00
2018-03-21T20:28:45.732Z,4.97
2018-03-21T20:31:13.382Z,6.10
2018-03-21T20:33:41.523Z,4.83
2018-03-21T20:36:09.720Z,4.20
2018-03-21T20:38:38.464Z,5.00
2018-03-21T20:41:06.863Z,5.90
2018-03-21T20:43:41.626Z,5.70
2018-03-21T20:46:10.014Z,6.30
2018-03-21T20:48:38.487Z,5.10
2018-03-21T20:51:06.452Z,6.43
2018-03-21T20:53:34.859Z,5.90
2018-03-21T20:56:03.476Z,6.37
2018-03-21T20:58:31.835Z,6.83
2018-03-21T21:01:00.182Z,4.07
2018-03-21T21:03:28.152Z,3.77
2018-03-21T21:05:55.799Z,4.13
2018-03-21T21:08:24.244Z,4.33
2018-03-21T21:10:51.877Z,5.60
2018-03-21T21:13:19.976Z,4.90
2018-03-21T21:15:49.532Z,6.23
2018-03-21T21:18:17.109Z,6.73
2018-03-21T21:20:45.284Z,6.40
2018-03-21T21:23:13.680Z,7.50
2018-03-21T21:25:41.893Z,7.30
2018-03-21T21:28:10.347Z,6.03
2018-03-21T21:30:39.021Z,6.93
2018-03-21T21:33:07.618Z,7.23
2018-03-21T21:35:35.287Z,7.00
2018-03-21T21:38:03.447Z,8.23
2018-03-21T21:40:31.278Z,6.33
2018-03-21T21:42:59.274Z,7.13
2018-03-21T21:45:27.264Z,4.83
2018-03-21T21:47:55.666Z,5.70
2018-03-21T21:50:23.705Z,5.87
2018-03-21T21:52:51.451Z,8.80
2018-03-21T21:55:19.609Z,5.87
2018-03-21T21:57:47.580Z,6.17
2018-03-21T22:00:15.968Z,7.23
2018-03-21T22:02:44.722Z,5.67
2018-03-21T22:05:12.600Z,4.87
2018-03-21T22:07:41.063Z,8.03
2018-03-21T22:10:09.396Z,6.00
2018-03-21T22:12:37.765Z,6.43
2018-03-21T22:15:06.382Z,5.70
2018-03-21T22:17:34.380Z,8.17
2018-03-21T22:20:02.754Z,11.40
2018-03-21T22:22:30.753Z,9.20
2018-03-21T22:24:59.283Z,8.13
2018-03-21T22:27:27.644Z,6.70
2018-03-21T22:29:55.666Z,7.70
2018-03-21T22:32:24.677Z,9.30
2018-03-21T22:34:52.632Z,7.20
2018-03-21T22:37:20.623Z,11.80
2018-03-21T22:39:48.290Z,5.73
2018-03-21T22:42:16.312Z,7.03
2018-03-21T22:44:45.244Z,5.57
2018-03-21T22:47:13.231Z,7.47
2018-03-21T22:49:41.914Z,8.40
2018-03-21T22:52:09.545Z,7.30
2018-03-21T22:54:37.189Z,6.80
2018-03-21T22:57:05.534Z,6.87
2018-03-21T22:59:33.178Z,11.07
2018-03-21T23:02:02.111Z,11.00
2018-03-21T23:04:29.746Z,6.77
2018-03-21T23:06:57.324Z,6.87
2018-03-21T23:09:25.262Z,7.50
2018-03-21T23:11:53.284Z,9.20
2018-03-21T23:14:21.701Z,7.67
2018-03-21T23:16:49.286Z,7.40
2018-03-21T23:19:17.276Z,9.93
2018-03-21T23:21:45.253Z,6.10
2018-03-21T23:24:12.862Z,6.87
2018-03-21T23:26:40.842Z,7.10
2018-03-21T23:29:08.860Z,7.20
2018-03-21T23:31:36.494Z,5.30
2018-03-21T23:34:05.783Z,7.33
2018-03-21T23:36:35.369Z,7.10
2018-03-21T23:39:03.049Z,6.27
2018-03-21T23:41:31.050Z,7.77
2018-03-21T23:43:58.717Z,8.87
2018-03-21T23:46:26.692Z,8.07
2018-03-21T23:48:54.280Z,9.37
2018-03-21T23:51:21.880Z,13.57
2018-03-21T23:53:50.255Z,10.67
2018-03-21T23:56:19.360Z,12.57
2018-03-21T23:58:47.490Z,13.37
